AUA34AK EGLL-LOWW
Flight info
| Callsign | AUA34AK |
|---|---|
| Flight time | N/A |
| Altitude | 37000 |
| Route | DET L6 DVR UL9 KONAN DCT KOK UL607 FERDI DCT MATUG DCT GUBAX DCT BARSU DCT EKSOS DCT LULAR DCT RUDAP DCT BUDEX BUDEX2W |
| Aircraft | A320/M-SDE3FGHIRWY/LB1 |
Departure
| Time | 2026-05-06 12:28 |
|---|---|
| Airport | London Heathrow Airport (EGLL) |
Arrival
| Time | N/A |
|---|---|
| Airport | Vienna International Airport (LOWW) |
| Time | Latitude | Longitude | Altitude | Speed | Heading |
|---|---|---|---|---|---|
| 2026-05-06 11:23 | 51.46834 | -0.45701 | 85 ft | 0 kts | 360° |
| 2026-05-06 12:16 | 51.46821 | -0.45701 | 87 ft | 4 kts | 358° |
| 2026-05-06 12:16 | 51.46803 | -0.45700 | 86 ft | 4 kts | 355° |
| 2026-05-06 12:17 | 51.46776 | -0.45694 | 89 ft | 4 kts | 344° |
| 2026-05-06 12:17 | 51.46754 | -0.45677 | 86 ft | 4 kts | 303° |
| 2026-05-06 12:17 | 51.46749 | -0.45661 | 88 ft | 0 kts | 269° |
| 2026-05-06 12:20 | 51.46749 | -0.45675 | 85 ft | 4 kts | 269° |
| 2026-05-06 12:21 | 51.46748 | -0.45766 | 85 ft | 12 kts | 269° |
| 2026-05-06 12:21 | 51.46748 | -0.45934 | 85 ft | 17 kts | 270° |
| 2026-05-06 12:21 | 51.46748 | -0.46134 | 85 ft | 18 kts | 269° |
| 2026-05-06 12:21 | 51.46748 | -0.46320 | 87 ft | 16 kts | 270° |
| 2026-05-06 12:22 | 51.46748 | -0.46503 | 85 ft | 18 kts | 270° |
| 2026-05-06 12:22 | 51.46748 | -0.46716 | 85 ft | 20 kts | 270° |
| 2026-05-06 12:22 | 51.46747 | -0.46938 | 87 ft | 19 kts | 271° |
| 2026-05-06 12:22 | 51.46748 | -0.47144 | 85 ft | 18 kts | 269° |
| 2026-05-06 12:23 | 51.46747 | -0.47329 | 89 ft | 16 kts | 270° |
| 2026-05-06 12:23 | 51.46747 | -0.47498 | 86 ft | 16 kts | 269° |
| 2026-05-06 12:23 | 51.46745 | -0.47684 | 85 ft | 16 kts | 270° |
| 2026-05-06 12:23 | 51.46745 | -0.47854 | 85 ft | 15 kts | 270° |
| 2026-05-06 12:24 | 51.46744 | -0.48016 | 85 ft | 14 kts | 270° |
| 2026-05-06 12:24 | 51.46742 | -0.48158 | 85 ft | 12 kts | 265° |
| 2026-05-06 12:24 | 51.46687 | -0.48216 | 86 ft | 9 kts | 179° |
| 2026-05-06 12:24 | 51.46637 | -0.48215 | 87 ft | 6 kts | 180° |
| 2026-05-06 12:25 | 51.46596 | -0.48215 | 86 ft | 6 kts | 180° |
| 2026-05-06 12:25 | 51.46557 | -0.48215 | 86 ft | 8 kts | 180° |
| 2026-05-06 12:25 | 51.46491 | -0.48210 | 87 ft | 7 kts | 166° |
| 2026-05-06 12:25 | 51.46477 | -0.48155 | 87 ft | 3 kts | 89° |
| 2026-05-06 12:26 | 51.46477 | -0.48154 | 87 ft | 0 kts | 89° |
| 2026-05-06 12:26 | 51.46477 | -0.48153 | 87 ft | 0 kts | 89° |
| 2026-05-06 12:27 | 51.46477 | -0.48152 | 87 ft | 0 kts | 89° |
| 2026-05-06 12:27 | 51.46477 | -0.48151 | 87 ft | 1 kts | 89° |
| 2026-05-06 12:27 | 51.46480 | -0.47915 | 83 ft | 56 kts | 89° |
| 2026-05-06 12:27 | 51.46485 | -0.46921 | 90 ft | 118 kts | 90° |
| 2026-05-06 12:28 | 51.46489 | -0.45319 | 108 ft | 164 kts | 89° |
| 2026-05-06 12:28 | 51.46478 | -0.43445 | 680 ft | 168 kts | 86° |
| 2026-05-06 12:28 | 51.46345 | -0.41566 | 1356 ft | 177 kts | 112° |
| 2026-05-06 12:28 | 51.45675 | -0.39830 | 1889 ft | 192 kts | 120° |
| 2026-05-06 12:29 | 51.44927 | -0.37912 | 2174 ft | 215 kts | 118° |
| 2026-05-06 12:29 | 51.44114 | -0.35734 | 2553 ft | 240 kts | 118° |
| 2026-05-06 12:29 | 51.43494 | -0.33158 | 3048 ft | 256 kts | 101° |
| 2026-05-06 12:29 | 51.43073 | -0.30343 | 3897 ft | 262 kts | 100° |
| 2026-05-06 12:30 | 51.42655 | -0.27477 | 4785 ft | 267 kts | 99° |
| 2026-05-06 12:30 | 51.42246 | -0.24554 | 5654 ft | 271 kts | 99° |
| 2026-05-06 12:30 | 51.41841 | -0.21563 | 6470 ft | 278 kts | 99° |
| 2026-05-06 12:30 | 51.41430 | -0.18515 | 7254 ft | 283 kts | 99° |
| 2026-05-06 12:31 | 51.41007 | -0.15402 | 8080 ft | 287 kts | 99° |
| 2026-05-06 12:31 | 51.40575 | -0.12251 | 8895 ft | 292 kts | 101° |
| 2026-05-06 12:31 | 51.40137 | -0.09060 | 9722 ft | 296 kts | 101° |
| 2026-05-06 12:31 | 51.39687 | -0.05804 | 10310 ft | 308 kts | 101° |
| 2026-05-06 12:32 | 51.39219 | -0.02426 | 10546 ft | 331 kts | 101° |
| 2026-05-06 12:32 | 51.38702 | 0.01271 | 10936 ft | 347 kts | 101° |
| 2026-05-06 12:32 | 51.38171 | 0.05070 | 11616 ft | 352 kts | 101° |
| 2026-05-06 12:32 | 51.37633 | 0.08913 | 12371 ft | 355 kts | 101° |
| 2026-05-06 12:33 | 51.37086 | 0.12799 | 13060 ft | 361 kts | 101° |
| 2026-05-06 12:33 | 51.36531 | 0.16751 | 13735 ft | 366 kts | 102° |
| 2026-05-06 12:33 | 51.35981 | 0.20680 | 14383 ft | 368 kts | 102° |
| 2026-05-06 12:33 | 51.35519 | 0.23978 | 14880 ft | 372 kts | 102° |
| 2026-05-06 12:34 | 51.34948 | 0.28033 | 15481 ft | 376 kts | 102° |
| 2026-05-06 12:34 | 51.34367 | 0.32136 | 16096 ft | 379 kts | 102° |
| 2026-05-06 12:34 | 51.33780 | 0.36261 | 16765 ft | 381 kts | 103° |
| 2026-05-06 12:34 | 51.33185 | 0.40417 | 17348 ft | 385 kts | 103° |
| 2026-05-06 12:35 | 51.32582 | 0.44617 | 17965 ft | 390 kts | 103° |
| 2026-05-06 12:35 | 51.31973 | 0.48851 | 18557 ft | 393 kts | 103° |
| 2026-05-06 12:35 | 51.31355 | 0.53109 | 19142 ft | 395 kts | 103° |
| 2026-05-06 12:35 | 51.30734 | 0.57399 | 19645 ft | 399 kts | 104° |
| 2026-05-06 12:36 | 51.30088 | 0.61718 | 20195 ft | 401 kts | 105° |
| 2026-05-06 12:36 | 51.29359 | 0.66029 | 20768 ft | 403 kts | 107° |
| 2026-05-06 12:36 | 51.28568 | 0.70336 | 21298 ft | 405 kts | 108° |
| 2026-05-06 12:36 | 51.27741 | 0.74661 | 21795 ft | 409 kts | 108° |
| 2026-05-06 12:37 | 51.26905 | 0.79016 | 22331 ft | 411 kts | 108° |
| 2026-05-06 12:37 | 51.26076 | 0.83397 | 22854 ft | 414 kts | 108° |
| 2026-05-06 12:37 | 51.25250 | 0.87818 | 23330 ft | 417 kts | 108° |
| 2026-05-06 12:37 | 51.24424 | 0.92271 | 23766 ft | 420 kts | 108° |
| 2026-05-06 12:38 | 51.23596 | 0.96744 | 24161 ft | 421 kts | 108° |
| 2026-05-06 12:38 | 51.22763 | 1.01241 | 24581 ft | 423 kts | 108° |
| 2026-05-06 12:38 | 51.21924 | 1.05749 | 24960 ft | 426 kts | 108° |
| 2026-05-06 12:38 | 51.21081 | 1.10284 | 25348 ft | 427 kts | 108° |
| 2026-05-06 12:39 | 51.20232 | 1.14837 | 25732 ft | 429 kts | 108° |
| 2026-05-06 12:39 | 51.19378 | 1.19414 | 26091 ft | 432 kts | 108° |
| 2026-05-06 12:39 | 51.18517 | 1.24006 | 26452 ft | 434 kts | 108° |
| 2026-05-06 12:39 | 51.17645 | 1.28618 | 26827 ft | 435 kts | 108° |
| 2026-05-06 12:40 | 51.16770 | 1.33244 | 27163 ft | 437 kts | 107° |
| 2026-05-06 12:40 | 51.16172 | 1.37950 | 27486 ft | 441 kts | 97° |
| 2026-05-06 12:40 | 51.15924 | 1.42836 | 27834 ft | 443 kts | 95° |
| 2026-05-06 12:40 | 51.15698 | 1.47742 | 28173 ft | 445 kts | 95° |
| 2026-05-06 12:41 | 51.15467 | 1.52674 | 28481 ft | 447 kts | 95° |
| 2026-05-06 12:41 | 51.15231 | 1.57623 | 28824 ft | 449 kts | 95° |
| 2026-05-06 12:41 | 51.14990 | 1.62589 | 29114 ft | 451 kts | 95° |
| 2026-05-06 12:41 | 51.14743 | 1.67577 | 29418 ft | 452 kts | 95° |
| 2026-05-06 12:42 | 51.14493 | 1.72568 | 29724 ft | 453 kts | 95° |
| 2026-05-06 12:42 | 51.14238 | 1.77589 | 29966 ft | 456 kts | 95° |
| 2026-05-06 12:42 | 51.13982 | 1.82627 | 30220 ft | 457 kts | 95° |
| 2026-05-06 12:42 | 51.13724 | 1.87668 | 30440 ft | 458 kts | 96° |
| 2026-05-06 12:43 | 51.13461 | 1.92738 | 30653 ft | 459 kts | 96° |
| 2026-05-06 12:43 | 51.13196 | 1.97805 | 30913 ft | 459 kts | 96° |
| 2026-05-06 12:43 | 51.12930 | 2.02862 | 31198 ft | 458 kts | 96° |
| 2026-05-06 12:43 | 51.12664 | 2.07905 | 31489 ft | 457 kts | 95° |
| 2026-05-06 12:44 | 51.12396 | 2.12937 | 31803 ft | 456 kts | 96° |
| 2026-05-06 12:44 | 51.12126 | 2.17959 | 32086 ft | 455 kts | 95° |
| 2026-05-06 12:44 | 51.11855 | 2.22971 | 32390 ft | 454 kts | 96° |
| 2026-05-06 12:44 | 51.11582 | 2.27971 | 32677 ft | 453 kts | 96° |
| 2026-05-06 12:45 | 51.11306 | 2.32965 | 32951 ft | 453 kts | 95° |
| 2026-05-06 12:45 | 51.11030 | 2.37947 | 33253 ft | 452 kts | 96° |
| 2026-05-06 12:45 | 51.10470 | 2.47890 | 33818 ft | 450 kts | 96° |
| 2026-05-06 12:46 | 51.10188 | 2.52843 | 34078 ft | 450 kts | 96° |
| 2026-05-06 12:46 | 51.09903 | 2.57798 | 34273 ft | 450 kts | 96° |
| 2026-05-06 12:46 | 51.09609 | 2.62758 | 34493 ft | 450 kts | 98° |
| 2026-05-06 12:46 | 51.09026 | 2.67640 | 34683 ft | 449 kts | 107° |
| 2026-05-06 12:47 | 51.08163 | 2.72420 | 34841 ft | 450 kts | 107° |
| 2026-05-06 12:47 | 51.07298 | 2.77205 | 35020 ft | 451 kts | 107° |
| 2026-05-06 12:47 | 51.06433 | 2.81998 | 35215 ft | 451 kts | 108° |
| 2026-05-06 12:47 | 51.05566 | 2.86792 | 35376 ft | 452 kts | 108° |
| 2026-05-06 12:48 | 51.04696 | 2.91586 | 35583 ft | 451 kts | 107° |
| 2026-05-06 12:48 | 51.03823 | 2.96371 | 35767 ft | 451 kts | 107° |
| 2026-05-06 12:48 | 51.02955 | 3.01091 | 35936 ft | 452 kts | 108° |
| 2026-05-06 12:48 | 51.02071 | 3.05882 | 36093 ft | 452 kts | 108° |
| 2026-05-06 12:49 | 51.01187 | 3.10670 | 36271 ft | 452 kts | 108° |
| 2026-05-06 12:49 | 51.00301 | 3.15460 | 36422 ft | 453 kts | 108° |
| 2026-05-06 12:49 | 50.99414 | 3.20259 | 36572 ft | 453 kts | 108° |
| 2026-05-06 12:49 | 50.98525 | 3.25057 | 36717 ft | 453 kts | 108° |
| 2026-05-06 12:50 | 50.97634 | 3.29853 | 36878 ft | 453 kts | 108° |
| 2026-05-06 12:50 | 50.95842 | 3.39447 | 36907 ft | 453 kts | 108° |
| 2026-05-06 12:51 | 50.94048 | 3.49028 | 36907 ft | 453 kts | 108° |
| 2026-05-06 12:51 | 50.92241 | 3.58599 | 36906 ft | 453 kts | 108° |
| 2026-05-06 12:52 | 50.90442 | 3.68166 | 36906 ft | 453 kts | 107° |
| 2026-05-06 12:52 | 50.88812 | 3.77819 | 36898 ft | 454 kts | 106° |
| 2026-05-06 12:53 | 50.87235 | 3.87494 | 36903 ft | 454 kts | 107° |
| 2026-05-06 12:53 | 50.85618 | 3.97141 | 36902 ft | 454 kts | 107° |
| 2026-05-06 12:54 | 50.83958 | 4.06775 | 36903 ft | 454 kts | 107° |
| 2026-05-06 12:54 | 50.82284 | 4.16392 | 36902 ft | 454 kts | 107° |
| 2026-05-06 12:55 | 50.80612 | 4.26007 | 36901 ft | 454 kts | 107° |
| 2026-05-06 12:55 | 50.78951 | 4.35560 | 36892 ft | 454 kts | 107° |
| 2026-05-06 12:56 | 50.77265 | 4.45166 | 36893 ft | 454 kts | 107° |
| 2026-05-06 12:56 | 50.75564 | 4.54772 | 36894 ft | 454 kts | 107° |
| 2026-05-06 12:57 | 50.73863 | 4.64373 | 36896 ft | 454 kts | 108° |
| 2026-05-06 12:57 | 50.72149 | 4.73971 | 36890 ft | 454 kts | 108° |
| 2026-05-06 12:58 | 50.70430 | 4.83553 | 36895 ft | 454 kts | 108° |
| 2026-05-06 12:58 | 50.68708 | 4.93128 | 36892 ft | 454 kts | 108° |
| 2026-05-06 12:59 | 50.66976 | 5.02690 | 36892 ft | 453 kts | 108° |
| 2026-05-06 12:59 | 50.65235 | 5.12240 | 36881 ft | 453 kts | 108° |
| 2026-05-06 13:00 | 50.63488 | 5.21785 | 36865 ft | 454 kts | 108° |
| 2026-05-06 13:00 | 50.61735 | 5.31326 | 36872 ft | 454 kts | 108° |
| 2026-05-06 13:01 | 50.59968 | 5.40863 | 36872 ft | 454 kts | 108° |
| 2026-05-06 13:01 | 50.58189 | 5.50396 | 36873 ft | 454 kts | 108° |
| 2026-05-06 13:02 | 50.56406 | 5.59918 | 36858 ft | 454 kts | 109° |
| 2026-05-06 13:02 | 50.54632 | 5.69382 | 36861 ft | 454 kts | 109° |
| 2026-05-06 13:03 | 50.52835 | 5.78914 | 36857 ft | 455 kts | 109° |
| 2026-05-06 13:03 | 50.51027 | 5.88430 | 36857 ft | 455 kts | 109° |
| 2026-05-06 13:04 | 50.49215 | 5.97949 | 36843 ft | 455 kts | 109° |
| 2026-05-06 13:04 | 50.47396 | 6.07455 | 36836 ft | 455 kts | 109° |
| 2026-05-06 13:05 | 50.45875 | 6.15352 | 36827 ft | 455 kts | 110° |
| 2026-05-06 13:05 | 50.44030 | 6.24842 | 36830 ft | 455 kts | 110° |
| 2026-05-06 13:06 | 50.42187 | 6.34325 | 36815 ft | 455 kts | 109° |
| 2026-05-06 13:06 | 50.41125 | 6.44127 | 36816 ft | 458 kts | 99° |
| 2026-05-06 13:07 | 50.40375 | 6.54042 | 36793 ft | 458 kts | 99° |
| 2026-05-06 13:07 | 50.39620 | 6.63952 | 36797 ft | 458 kts | 99° |
| 2026-05-06 13:08 | 50.38847 | 6.73864 | 36808 ft | 458 kts | 100° |
| 2026-05-06 13:08 | 50.38063 | 6.83762 | 36812 ft | 458 kts | 100° |
| 2026-05-06 13:09 | 50.37271 | 6.93669 | 36803 ft | 458 kts | 100° |
| 2026-05-06 13:09 | 50.36467 | 7.03570 | 36803 ft | 458 kts | 100° |
| 2026-05-06 13:10 | 50.35661 | 7.13472 | 36809 ft | 459 kts | 100° |
| 2026-05-06 13:10 | 50.34851 | 7.23376 | 36811 ft | 459 kts | 100° |
| 2026-05-06 13:11 | 50.34031 | 7.33284 | 36815 ft | 459 kts | 100° |
| 2026-05-06 13:11 | 50.33196 | 7.43200 | 36799 ft | 460 kts | 100° |
| 2026-05-06 13:12 | 50.32347 | 7.53108 | 36796 ft | 459 kts | 101° |
| 2026-05-06 13:12 | 50.31493 | 7.63019 | 36796 ft | 460 kts | 101° |
| 2026-05-06 13:13 | 50.30629 | 7.72942 | 36800 ft | 460 kts | 101° |
| 2026-05-06 13:13 | 50.29757 | 7.82862 | 36796 ft | 461 kts | 101° |
| 2026-05-06 13:14 | 50.28849 | 7.92775 | 36779 ft | 461 kts | 103° |
| 2026-05-06 13:14 | 50.27616 | 8.02528 | 36776 ft | 460 kts | 106° |
| 2026-05-06 13:15 | 50.26166 | 8.12265 | 36777 ft | 460 kts | 106° |
| 2026-05-06 13:15 | 50.24731 | 8.22022 | 36782 ft | 461 kts | 105° |
| 2026-05-06 13:16 | 50.23357 | 8.31812 | 36772 ft | 461 kts | 106° |
| 2026-05-06 13:16 | 50.21993 | 8.41600 | 36780 ft | 461 kts | 106° |
| 2026-05-06 13:17 | 50.20608 | 8.51376 | 36781 ft | 461 kts | 106° |
| 2026-05-06 13:17 | 50.19205 | 8.61143 | 36782 ft | 461 kts | 106° |
| 2026-05-06 13:18 | 50.17800 | 8.70900 | 36787 ft | 461 kts | 106° |
| 2026-05-06 13:18 | 50.16386 | 8.80658 | 36786 ft | 461 kts | 106° |
| 2026-05-06 13:19 | 50.14966 | 8.90408 | 36786 ft | 461 kts | 106° |
| 2026-05-06 13:19 | 50.13540 | 9.00142 | 36782 ft | 461 kts | 107° |
| 2026-05-06 13:20 | 50.12110 | 9.09805 | 36772 ft | 461 kts | 107° |
| 2026-05-06 13:20 | 50.10665 | 9.19518 | 36757 ft | 460 kts | 107° |
| 2026-05-06 13:21 | 50.09215 | 9.29229 | 36766 ft | 460 kts | 107° |
| 2026-05-06 13:21 | 50.07754 | 9.38919 | 36767 ft | 460 kts | 107° |
| 2026-05-06 13:22 | 50.06288 | 9.48613 | 36770 ft | 460 kts | 107° |
| 2026-05-06 13:22 | 50.04814 | 9.58291 | 36771 ft | 460 kts | 107° |
| 2026-05-06 13:23 | 50.03324 | 9.67961 | 36757 ft | 460 kts | 107° |
| 2026-05-06 13:23 | 50.01831 | 9.77633 | 36758 ft | 460 kts | 107° |
| 2026-05-06 13:24 | 50.00337 | 9.87295 | 36760 ft | 460 kts | 107° |
| 2026-05-06 13:24 | 49.98837 | 9.96957 | 36760 ft | 460 kts | 107° |
| 2026-05-06 13:25 | 49.97315 | 10.06609 | 36748 ft | 460 kts | 108° |
| 2026-05-06 13:25 | 49.95779 | 10.16264 | 36757 ft | 460 kts | 108° |